sensor_id;sensor_type;location;lat;lon;timestamp;pressure;altitude;pressure_sealevel;temperature;humidity
53758;BME280;39674;59.860;30.672;2023-05-14T00:02:05;102281.91;;;8.93;83.32
53758;BME280;39674;59.860;30.672;2023-05-14T00:06:49;102207.44;;;8.37;83.77
53758;BME280;39674;59.860;30.672;2023-05-14T00:08:04;102293.38;;;8.91;83.18
53758;BME280;39674;59.860;30.672;2023-05-14T00:14:11;102293.25;;;8.97;83.90
53758;BME280;39674;59.860;30.672;2023-05-14T00:17:03;102282.78;;;8.94;81.23
53758;BME280;39674;59.860;30.672;2023-05-14T00:19:51;102287.81;;;9.06;81.27
53758;BME280;39674;59.860;30.672;2023-05-14T00:22:46;102278.88;;;9.13;79.74
53758;BME280;39674;59.860;30.672;2023-05-14T00:25:42;102233.66;;;8.90;78.98
53758;BME280;39674;59.860;30.672;2023-05-14T00:28:16;102297.31;;;9.15;82.26
53758;BME280;39674;59.860;30.672;2023-05-14T00:30:49;102333.03;;;9.30;82.19
53758;BME280;39674;59.860;30.672;2023-05-14T00:33:25;102326.03;;;9.29;82.96
53758;BME280;39674;59.860;30.672;2023-05-14T00:35:59;102300.09;;;9.07;83.87
53758;BME280;39674;59.860;30.672;2023-05-14T00:38:28;102224.88;;;8.44;85.25
53758;BME280;39674;59.860;30.672;2023-05-14T00:41:02;102286.94;;;8.59;86.88
53758;BME280;39674;59.860;30.672;2023-05-14T00:43:33;102267.78;;;8.50;87.36
53758;BME280;39674;59.860;30.672;2023-05-14T00:46:03;102328.53;;;8.90;87.89
53758;BME280;39674;59.860;30.672;2023-05-14T00:48:36;102283.97;;;8.77;86.87
53758;BME280;39674;59.860;30.672;2023-05-14T00:51:12;102328.00;;;9.18;86.36
53758;BME280;39674;59.860;30.672;2023-05-14T00:53:44;102294.94;;;9.01;86.66
53758;BME280;39674;59.860;30.672;2023-05-14T00:56:25;102338.19;;;9.36;86.15
53758;BME280;39674;59.860;30.672;2023-05-14T00:58:54;102301.66;;;9.18;84.38
53758;BME280;39674;59.860;30.672;2023-05-14T01:01:26;102338.91;;;9.44;82.62
53758;BME280;39674;59.860;30.672;2023-05-14T01:03:57;102340.47;;;9.53;81.62
53758;BME280;39674;59.860;30.672;2023-05-14T01:06:35;102298.69;;;9.33;82.65
53758;BME280;39674;59.860;30.672;2023-05-14T01:09:17;102247.50;;;9.01;81.43
53758;BME280;39674;59.860;30.672;2023-05-14T01:12:04;102318.56;;;9.50;79.35
53758;BME280;39674;59.860;30.672;2023-05-14T01:14:53;102348.97;;;9.66;82.95
53758;BME280;39674;59.860;30.672;2023-05-14T01:17:30;102301.41;;;9.30;83.42
53758;BME280;39674;59.860;30.672;2023-05-14T01:20:04;102311.09;;;9.29;83.28
53758;BME280;39674;59.860;30.672;2023-05-14T01:22:36;102232.88;;;8.86;82.11
53758;BME280;39674;59.860;30.672;2023-05-14T01:25:06;102339.72;;;9.46;82.22
53758;BME280;39674;59.860;30.672;2023-05-14T01:27:40;102279.75;;;9.14;84.26
53758;BME280;39674;59.860;30.672;2023-05-14T01:30:20;102285.88;;;9.14;85.82
53758;BME280;39674;59.860;30.672;2023-05-14T01:32:53;102270.66;;;8.85;87.76
53758;BME280;39674;59.860;30.672;2023-05-14T01:35:29;102216.09;;;8.45;88.55
53758;BME280;39674;59.860;30.672;2023-05-14T01:38:06;102293.38;;;8.91;88.95
53758;BME280;39674;59.860;30.672;2023-05-14T01:40:39;102223.94;;;8.48;89.28
53758;BME280;39674;59.860;30.672;2023-05-14T01:43:09;102267.41;;;8.72;89.17
53758;BME280;39674;59.860;30.672;2023-05-14T01:45:38;102212.75;;;8.33;89.90
53758;BME280;39674;59.860;30.672;2023-05-14T01:48:09;102219.06;;;8.25;88.72
53758;BME280;39674;59.860;30.672;2023-05-14T01:50:47;102286.72;;;8.71;88.49
53758;BME280;39674;59.860;30.672;2023-05-14T01:53:17;102291.72;;;8.87;89.98
53758;BME280;39674;59.860;30.672;2023-05-14T01:55:49;102315.78;;;9.13;89.74
53758;BME280;39674;59.860;30.672;2023-05-14T01:58:23;102201.09;;;8.48;89.25
53758;BME280;39674;59.860;30.672;2023-05-14T02:00:57;102258.63;;;8.70;89.00
53758;BME280;39674;59.860;30.672;2023-05-14T02:03:30;102217.03;;;8.39;87.90
53758;BME280;39674;59.860;30.672;2023-05-14T02:06:06;102294.25;;;8.91;87.88
53758;BME280;39674;59.860;30.672;2023-05-14T02:08:41;102257.66;;;8.76;89.94
53758;BME280;39674;59.860;30.672;2023-05-14T02:48:42;102331.19;;;9.76;89.55
53758;BME280;39674;59.860;30.672;2023-05-14T03:39:20;102297.97;;;11.98;70.31
53758;BME280;39674;59.860;30.672;2023-05-14T03:42:57;102341.38;;;12.21;67.27
53758;BME280;39674;59.860;30.672;2023-05-14T04:11:56;102352.91;;;12.47;63.96
53758;BME280;39674;59.860;30.672;2023-05-14T04:41:07;102361.06;;;13.43;61.72
53758;BME280;39674;59.860;30.672;2023-05-14T04:48:57;102335.72;;;13.82;60.92
53758;BME280;39674;59.860;30.672;2023-05-14T04:51:44;102331.66;;;13.95;60.27
53758;BME280;39674;59.860;30.672;2023-05-14T04:54:52;102285.06;;;14.09;59.66
53758;BME280;39674;59.860;30.672;2023-05-14T05:22:39;102315.03;;;14.97;53.93
53758;BME280;39674;59.860;30.672;2023-05-14T05:25:21;102327.84;;;15.28;53.73
53758;BME280;39674;59.860;30.672;2023-05-14T05:31:56;102330.06;;;15.95;51.17
53758;BME280;39674;59.860;30.672;2023-05-14T05:34:30;102285.75;;;15.55;50.14
53758;BME280;39674;59.860;30.672;2023-05-14T05:37:07;102332.31;;;15.66;50.72
53758;BME280;39674;59.860;30.672;2023-05-14T05:49:40;102325.13;;;16.24;50.38
53758;BME280;39674;59.860;30.672;2023-05-14T05:52:59;102329.69;;;16.02;50.53
53758;BME280;39674;59.860;30.672;2023-05-14T05:56:39;102278.88;;;15.50;50.38
53758;BME280;39674;59.860;30.672;2023-05-14T05:59:33;102324.16;;;15.69;50.23
53758;BME280;39674;59.860;30.672;2023-05-14T06:02:47;102321.88;;;15.61;50.17
53758;BME280;39674;59.860;30.672;2023-05-14T08:31:59;102233.22;;;17.63;44.58
53758;BME280;39674;59.860;30.672;2023-05-14T08:39:34;102302.69;;;17.79;44.44
53758;BME280;39674;59.860;30.672;2023-05-14T08:42:39;102254.75;;;17.44;45.25
53758;BME280;39674;59.860;30.672;2023-05-14T08:45:31;102264.75;;;17.57;45.61
53758;BME280;39674;59.860;30.672;2023-05-14T08:49:35;102291.22;;;17.77;44.61
53758;BME280;39674;59.860;30.672;2023-05-14T08:52:49;102302.69;;;17.63;45.50
53758;BME280;39674;59.860;30.672;2023-05-14T08:57:07;102302.00;;;17.76;45.90
53758;BME280;39674;59.860;30.672;2023-05-14T20:26:38;101997.63;;;12.75;68.90
53758;BME280;39674;59.860;30.672;2023-05-14T20:29:28;101982.56;;;12.54;69.00
53758;BME280;39674;59.860;30.672;2023-05-14T20:32:11;101988.72;;;12.54;69.31
53758;BME280;39674;59.860;30.672;2023-05-14T20:34:52;101968.06;;;12.40;70.37
53758;BME280;39674;59.860;30.672;2023-05-14T21:43:16;102004.50;;;11.08;75.82
53758;BME280;39674;59.860;30.672;2023-05-14T21:46:19;102003.53;;;11.11;74.57
53758;BME280;39674;59.860;30.672;2023-05-14T21:48:57;101998.94;;;11.16;75.38
53758;BME280;39674;59.860;30.672;2023-05-14T21:51:50;101940.03;;;10.86;74.11
